sensor_id;sensor_type;location;lat;lon;timestamp;pressure;altitude;pressure_sealevel;temperature;humidity
12203;BME280;6164;42.178;24.622;2024-01-15T00:00:23;99290.13;;;-2.44;100.00
12203;BME280;6164;42.178;24.622;2024-01-15T00:02:49;99293.53;;;-2.44;100.00
12203;BME280;6164;42.178;24.622;2024-01-15T00:05:16;99288.72;;;-2.50;100.00
12203;BME280;6164;42.178;24.622;2024-01-15T00:07:42;99288.19;;;-2.55;100.00
12203;BME280;6164;42.178;24.622;2024-01-15T00:10:09;99293.00;;;-2.63;100.00
12203;BME280;6164;42.178;24.622;2024-01-15T00:12:37;99292.16;;;-2.63;100.00
12203;BME280;6164;42.178;24.622;2024-01-15T00:15:04;99282.50;;;-2.74;100.00
12203;BME280;6164;42.178;24.622;2024-01-15T00:17:31;99274.16;;;-2.93;100.00
12203;BME280;6164;42.178;24.622;2024-01-15T00:19:57;99281.91;;;-2.93;100.00
12203;BME280;6164;42.178;24.622;2024-01-15T00:22:26;99276.75;;;-2.93;100.00
12203;BME280;6164;42.178;24.622;2024-01-15T00:24:52;99288.66;;;-2.91;100.00
12203;BME280;6164;42.178;24.622;2024-01-15T00:27:19;99284.50;;;-2.93;100.00
12203;BME280;6164;42.178;24.622;2024-01-15T00:29:47;99287.03;;;-2.92;100.00
12203;BME280;6164;42.178;24.622;2024-01-15T00:32:15;99278.25;;;-2.89;100.00
12203;BME280;6164;42.178;24.622;2024-01-15T00:34:42;99289.50;;;-2.90;100.00
12203;BME280;6164;42.178;24.622;2024-01-15T00:37:08;99285.06;;;-2.88;100.00
12203;BME280;6164;42.178;24.622;2024-01-15T00:39:35;99280.47;;;-2.97;100.00
12203;BME280;6164;42.178;24.622;2024-01-15T00:42:01;99275.28;;;-2.97;100.00
12203;BME280;6164;42.178;24.622;2024-01-15T00:44:28;99278.63;;;-2.95;100.00
12203;BME280;6164;42.178;24.622;2024-01-15T00:46:56;99274.66;;;-3.01;100.00
12203;BME280;6164;42.178;24.622;2024-01-15T00:49:22;99272.91;;;-3.00;100.00
12203;BME280;6164;42.178;24.622;2024-01-15T00:51:49;99271.31;;;-3.03;100.00
12203;BME280;6164;42.178;24.622;2024-01-15T00:54:16;99257.41;;;-3.00;100.00
12203;BME280;6164;42.178;24.622;2024-01-15T00:56:43;99256.38;;;-2.98;100.00
12203;BME280;6164;42.178;24.622;2024-01-15T00:59:09;99266.81;;;-2.99;100.00
12203;BME280;6164;42.178;24.622;2024-01-15T01:01:39;99260.53;;;-3.23;100.00
12203;BME280;6164;42.178;24.622;2024-01-15T01:04:09;99269.03;;;-3.21;100.00
12203;BME280;6164;42.178;24.622;2024-01-15T01:06:36;99264.19;;;-3.27;100.00
12203;BME280;6164;42.178;24.622;2024-01-15T01:09:02;99270.44;;;-3.45;100.00
12203;BME280;6164;42.178;24.622;2024-01-15T01:11:29;99266.03;;;-3.43;100.00
12203;BME280;6164;42.178;24.622;2024-01-15T01:13:56;99269.06;;;-3.37;100.00
12203;BME280;6164;42.178;24.622;2024-01-15T01:16:22;99263.81;;;-3.49;100.00
12203;BME280;6164;42.178;24.622;2024-01-15T01:18:49;99264.81;;;-3.52;100.00
12203;BME280;6164;42.178;24.622;2024-01-15T01:21:17;99263.66;;;-3.62;100.00
12203;BME280;6164;42.178;24.622;2024-01-15T01:23:43;99266.16;;;-3.60;100.00
12203;BME280;6164;42.178;24.622;2024-01-15T01:26:10;99264.59;;;-3.63;100.00
12203;BME280;6164;42.178;24.622;2024-01-15T01:28:36;99259.81;;;-3.55;100.00
12203;BME280;6164;42.178;24.622;2024-01-15T01:31:03;99259.72;;;-3.67;100.00
12203;BME280;6164;42.178;24.622;2024-01-15T01:33:29;99266.22;;;-3.76;100.00
12203;BME280;6164;42.178;24.622;2024-01-15T01:35:56;99259.34;;;-3.91;100.00
12203;BME280;6164;42.178;24.622;2024-01-15T01:38:24;99255.81;;;-4.04;100.00
12203;BME280;6164;42.178;24.622;2024-01-15T01:40:50;99255.88;;;-4.06;100.00
12203;BME280;6164;42.178;24.622;2024-01-15T01:43:17;99245.63;;;-3.91;100.00
12203;BME280;6164;42.178;24.622;2024-01-15T01:45:43;99254.75;;;-3.86;100.00
12203;BME280;6164;42.178;24.622;2024-01-15T01:48:10;99254.09;;;-3.89;100.00
12203;BME280;6164;42.178;24.622;2024-01-15T01:50:37;99254.75;;;-3.86;100.00
12203;BME280;6164;42.178;24.622;2024-01-15T01:53:03;99248.59;;;-3.83;100.00
12203;BME280;6164;42.178;24.622;2024-01-15T01:55:31;99247.34;;;-3.76;100.00
12203;BME280;6164;42.178;24.622;2024-01-15T01:57:59;99249.53;;;-3.70;100.00
12203;BME280;6164;42.178;24.622;2024-01-15T02:00:26;99242.44;;;-3.81;100.00
12203;BME280;6164;42.178;24.622;2024-01-15T02:02:53;99239.69;;;-3.64;100.00
12203;BME280;6164;42.178;24.622;2024-01-15T02:05:20;99237.31;;;-3.67;100.00
12203;BME280;6164;42.178;24.622;2024-01-15T02:07:47;99235.38;;;-3.63;100.00
12203;BME280;6164;42.178;24.622;2024-01-15T02:10:13;99237.13;;;-3.64;100.00
12203;BME280;6164;42.178;24.622;2024-01-15T02:12:41;99236.97;;;-3.61;100.00
12203;BME280;6164;42.178;24.622;2024-01-15T02:15:08;99238.53;;;-3.58;100.00
12203;BME280;6164;42.178;24.622;2024-01-15T02:17:35;99235.13;;;-3.59;100.00
12203;BME280;6164;42.178;24.622;2024-01-15T02:20:01;99244.72;;;-3.61;100.00
12203;BME280;6164;42.178;24.622;2024-01-15T02:22:28;99240.44;;;-3.62;100.00
12203;BME280;6164;42.178;24.622;2024-01-15T02:24:56;99243.59;;;-3.57;100.00
12203;BME280;6164;42.178;24.622;2024-01-15T02:27:23;99246.72;;;-3.66;100.00
12203;BME280;6164;42.178;24.622;2024-01-15T02:29:49;99241.94;;;-3.58;100.00
12203;BME280;6164;42.178;24.622;2024-01-15T02:32:17;99234.88;;;-3.54;100.00
12203;BME280;6164;42.178;24.622;2024-01-15T02:34:43;99238.16;;;-3.52;100.00
12203;BME280;6164;42.178;24.622;2024-01-15T02:37:10;99233.09;;;-3.54;100.00
12203;BME280;6164;42.178;24.622;2024-01-15T02:39:36;99236.34;;;-3.50;100.00
12203;BME280;6164;42.178;24.622;2024-01-15T02:42:05;99238.00;;;-3.49;100.00
12203;BME280;6164;42.178;24.622;2024-01-15T02:44:31;99237.91;;;-3.48;100.00
12203;BME280;6164;42.178;24.622;2024-01-15T02:46:58;99236.06;;;-3.46;100.00
12203;BME280;6164;42.178;24.622;2024-01-15T02:49:24;99236.91;;;-3.45;100.00
12203;BME280;6164;42.178;24.622;2024-01-15T02:51:51;99229.44;;;-3.50;100.00
12203;BME280;6164;42.178;24.622;2024-01-15T02:54:17;99222.53;;;-3.49;100.00
12203;BME280;6164;42.178;24.622;2024-01-15T02:56:44;99223.81;;;-3.56;100.00
12203;BME280;6164;42.178;24.622;2024-01-15T02:59:12;99225.72;;;-3.60;100.00
12203;BME280;6164;42.178;24.622;2024-01-15T03:01:38;99230.31;;;-3.65;100.00
12203;BME280;6164;42.178;24.622;2024-01-15T03:04:05;99227.75;;;-3.65;100.00
12203;BME280;6164;42.178;24.622;2024-01-15T03:06:31;99229.09;;;-3.73;100.00
12203;BME280;6164;42.178;24.622;2024-01-15T03:08:58;99224.66;;;-3.85;100.00
12203;BME280;6164;42.178;24.622;2024-01-15T03:11:24;99224.56;;;-3.84;100.00
12203;BME280;6164;42.178;24.622;2024-01-15T03:13:51;99225.19;;;-3.80;100.00
12203;BME280;6164;42.178;24.622;2024-01-15T03:16:19;99215.25;;;-3.86;100.00
12203;BME280;6164;42.178;24.622;2024-01-15T03:18:46;99220.47;;;-3.72;100.00
12203;BME280;6164;42.178;24.622;2024-01-15T03:21:13;99217.88;;;-3.72;100.00
12203;BME280;6164;42.178;24.622;2024-01-15T03:23:39;99217.88;;;-3.72;100.00
12203;BME280;6164;42.178;24.622;2024-01-15T03:26:06;99219.97;;;-3.79;100.00
12203;BME280;6164;42.178;24.622;2024-01-15T03:28:32;99221.19;;;-3.70;100.00
12203;BME280;6164;42.178;24.622;2024-01-15T03:30:59;99218.44;;;-3.67;100.00
12203;BME280;6164;42.178;24.622;2024-01-15T03:33:27;99227.75;;;-3.65;100.00
12203;BME280;6164;42.178;24.622;2024-01-15T03:35:53;99216.09;;;-3.72;100.00
12203;BME280;6164;42.178;24.622;2024-01-15T03:38:20;99213.16;;;-3.80;100.00
12203;BME280;6164;42.178;24.622;2024-01-15T03:40:46;99220.97;;;-3.81;100.00
12203;BME280;6164;42.178;24.622;2024-01-15T03:43:13;99227.94;;;-3.97;100.00
12203;BME280;6164;42.178;24.622;2024-01-15T03:45:39;99224.56;;;-4.29;100.00
12203;BME280;6164;42.178;24.622;2024-01-15T03:48:06;99224.44;;;-4.42;100.00
12203;BME280;6164;42.178;24.622;2024-01-15T03:50:34;99224.50;;;-4.59;100.00
12203;BME280;6164;42.178;24.622;2024-01-15T03:53:00;99228.50;;;-4.69;100.00
12203;BME280;6164;42.178;24.622;2024-01-15T03:55:27;99219.34;;;-4.90;100.00
12203;BME280;6164;42.178;24.622;2024-01-15T03:57:53;99220.09;;;-4.88;100.00
12203;BME280;6164;42.178;24.622;2024-01-15T04:00:20;99210.13;;;-4.94;100.00
12203;BME280;6164;42.178;24.622;2024-01-15T04:02:46;99210.63;;;-4.87;100.00
12203;BME280;6164;42.178;24.622;2024-01-15T04:05:13;99211.69;;;-4.76;100.00
12203;BME280;6164;42.178;24.622;2024-01-15T04:07:41;99216.13;;;-4.62;100.00
12203;BME280;6164;42.178;24.622;2024-01-15T04:10:07;99216.31;;;-4.50;100.00
12203;BME280;6164;42.178;24.622;2024-01-15T04:12:34;99202.81;;;-4.39;100.00
12203;BME280;6164;42.178;24.622;2024-01-15T04:15:01;99191.06;;;-4.29;100.00
12203;BME280;6164;42.178;24.622;2024-01-15T04:17:27;99195.63;;;-4.19;100.00
12203;BME280;6164;42.178;24.622;2024-01-15T04:19:55;99196.13;;;-4.12;100.00
12203;BME280;6164;42.178;24.622;2024-01-15T04:22:21;99190.59;;;-4.06;100.00
12203;BME280;6164;42.178;24.622;2024-01-15T04:24:49;99204.16;;;-4.03;100.00
12203;BME280;6164;42.178;24.622;2024-01-15T04:27:16;99195.31;;;-3.98;100.00
12203;BME280;6164;42.178;24.622;2024-01-15T04:29:42;99190.00;;;-3.95;100.00
12203;BME280;6164;42.178;24.622;2024-01-15T04:32:10;99189.75;;;-3.91;100.00
12203;BME280;6164;42.178;24.622;2024-01-15T04:34:36;99186.59;;;-3.96;100.00
12203;BME280;6164;42.178;24.622;2024-01-15T04:37:03;99188.91;;;-3.91;100.00
12203;BME280;6164;42.178;24.622;2024-01-15T04:39:30;99183.66;;;-3.90;100.00
12203;BME280;6164;42.178;24.622;2024-01-15T04:41:57;99189.25;;;-3.97;100.00
12203;BME280;6164;42.178;24.622;2024-01-15T04:44:24;99185.19;;;-4.02;100.00
12203;BME280;6164;42.178;24.622;2024-01-15T04:46:51;99192.69;;;-3.97;100.00
12203;BME280;6164;42.178;24.622;2024-01-15T04:49:17;99183.09;;;-3.95;100.00
12203;BME280;6164;42.178;24.622;2024-01-15T04:51:44;99168.63;;;-3.97;100.00
12203;BME280;6164;42.178;24.622;2024-01-15T04:54:10;99185.41;;;-3.90;100.00
12203;BME280;6164;42.178;24.622;2024-01-15T04:56:37;99175.91;;;-3.90;100.00
12203;BME280;6164;42.178;24.622;2024-01-15T04:59:05;99176.56;;;-3.86;100.00
12203;BME280;6164;42.178;24.622;2024-01-15T05:01:32;99175.59;;;-3.84;100.00
12203;BME280;6164;42.178;24.622;2024-01-15T05:03:58;99171.88;;;-3.80;100.00
12203;BME280;6164;42.178;24.622;2024-01-15T05:06:25;99164.34;;;-3.83;100.00
12203;BME280;6164;42.178;24.622;2024-01-15T05:08:51;99164.16;;;-3.80;100.00
12203;BME280;6164;42.178;24.622;2024-01-15T05:11:18;99157.25;;;-3.79;100.00
12203;BME280;6164;42.178;24.622;2024-01-15T05:13:44;99151.53;;;-3.84;100.00
12203;BME280;6164;42.178;24.622;2024-01-15T05:16:12;99161.97;;;-4.02;100.00
12203;BME280;6164;42.178;24.622;2024-01-15T05:18:39;99159.06;;;-3.95;100.00
12203;BME280;6164;42.178;24.622;2024-01-15T05:21:05;99148.66;;;-3.94;100.00
12203;BME280;6164;42.178;24.622;2024-01-15T05:23:32;99150.31;;;-3.93;100.00
12203;BME280;6164;42.178;24.622;2024-01-15T05:25:58;99139.72;;;-3.88;100.00
12203;BME280;6164;42.178;24.622;2024-01-15T05:28:25;99141.50;;;-3.89;100.00
12203;BME280;6164;42.178;24.622;2024-01-15T05:30:51;99143.25;;;-3.89;100.00
12203;BME280;6164;42.178;24.622;2024-01-15T05:33:21;99138.09;;;-3.89;100.00
12203;BME280;6164;42.178;24.622;2024-01-15T05:35:47;99141.31;;;-3.86;100.00
12203;BME280;6164;42.178;24.622;2024-01-15T05:38:15;99151.53;;;-3.84;100.00
12203;BME280;6164;42.178;24.622;2024-01-15T05:40:42;99153.56;;;-3.89;100.00
12203;BME280;6164;42.178;24.622;2024-01-15T05:43:08;99151.91;;;-3.90;100.00
12203;BME280;6164;42.178;24.622;2024-01-15T05:45:35;99159.16;;;-3.97;100.00
12203;BME280;6164;42.178;24.622;2024-01-15T05:48:01;99160.91;;;-4.27;100.00
12203;BME280;6164;42.178;24.622;2024-01-15T05:50:29;99165.91;;;-4.40;100.00
12203;BME280;6164;42.178;24.622;2024-01-15T05:52:56;99166.66;;;-4.38;100.00
12203;BME280;6164;42.178;24.622;2024-01-15T05:55:22;99157.09;;;-4.36;100.00
12203;BME280;6164;42.178;24.622;2024-01-15T05:57:49;99146.63;;;-4.33;100.00
12203;BME280;6164;42.178;24.622;2024-01-15T06:00:16;99150.88;;;-4.32;100.00
12203;BME280;6164;42.178;24.622;2024-01-15T06:02:42;99151.69;;;-4.31;100.00
12203;BME280;6164;42.178;24.622;2024-01-15T06:05:09;99145.72;;;-4.32;100.00
12203;BME280;6164;42.178;24.622;2024-01-15T06:07:37;99150.94;;;-4.33;100.00
12203;BME280;6164;42.178;24.622;2024-01-15T06:10:03;99149.19;;;-4.33;100.00
12203;BME280;6164;42.178;24.622;2024-01-15T06:12:30;99153.03;;;-4.40;100.00
12203;BME280;6164;42.178;24.622;2024-01-15T06:14:57;99158.97;;;-4.53;100.00
12203;BME280;6164;42.178;24.622;2024-01-15T06:17:24;99162.59;;;-4.42;100.00
12203;BME280;6164;42.178;24.622;2024-01-15T06:19:50;99167.50;;;-4.37;100.00
12203;BME280;6164;42.178;24.622;2024-01-15T06:22:17;99164.47;;;-4.75;100.00
12203;BME280;6164;42.178;24.622;2024-01-15T06:24:45;99176.06;;;-4.68;100.00
12203;BME280;6164;42.178;24.622;2024-01-15T06:27:12;99172.84;;;-4.71;100.00
12203;BME280;6164;42.178;24.622;2024-01-15T06:29:38;99177.56;;;-4.64;100.00
12203;BME280;6164;42.178;24.622;2024-01-15T06:32:05;99181.31;;;-4.69;100.00
12203;BME280;6164;42.178;24.622;2024-01-15T06:34:31;99177.91;;;-4.85;100.00
12203;BME280;6164;42.178;24.622;2024-01-15T06:37:01;99180.66;;;-4.73;100.00
12203;BME280;6164;42.178;24.622;2024-01-15T06:39:27;99179.09;;;-4.60;100.00
12203;BME280;6164;42.178;24.622;2024-01-15T06:41:56;99177.66;;;-4.50;100.00
12203;BME280;6164;42.178;24.622;2024-01-15T06:44:22;99182.47;;;-4.44;100.00
12203;BME280;6164;42.178;24.622;2024-01-15T06:46:49;99166.06;;;-4.43;100.00
12203;BME280;6164;42.178;24.622;2024-01-15T06:49:16;99164.53;;;-4.45;100.00
12203;BME280;6164;42.178;24.622;2024-01-15T06:51:43;99174.47;;;-4.39;100.00
12203;BME280;6164;42.178;24.622;2024-01-15T06:54:09;99168.56;;;-4.41;100.00
12203;BME280;6164;42.178;24.622;2024-01-15T06:56:37;99162.28;;;-4.22;100.00
12203;BME280;6164;42.178;24.622;2024-01-15T06:59:05;99160.50;;;-4.06;100.00
12203;BME280;6164;42.178;24.622;2024-01-15T07:01:31;99160.53;;;-3.91;100.00
12203;BME280;6164;42.178;24.622;2024-01-15T07:03:58;99163.25;;;-3.79;100.00
12203;BME280;6164;42.178;24.622;2024-01-15T07:06:24;99159.13;;;-3.67;100.00
12203;BME280;6164;42.178;24.622;2024-01-15T07:08:51;99157.91;;;-3.62;100.00
12203;BME280;6164;42.178;24.622;2024-01-15T07:11:17;99157.47;;;-3.54;100.00
12203;BME280;6164;42.178;24.622;2024-01-15T07:13:44;99151.75;;;-3.45;100.00
12203;BME280;6164;42.178;24.622;2024-01-15T07:16:12;99151.31;;;-3.38;100.00
12203;BME280;6164;42.178;24.622;2024-01-15T07:18:39;99157.81;;;-3.32;100.00
12203;BME280;6164;42.178;24.622;2024-01-15T07:21:05;99165.84;;;-3.23;100.00
12203;BME280;6164;42.178;24.622;2024-01-15T07:23:32;99169.16;;;-3.21;100.00
12203;BME280;6164;42.178;24.622;2024-01-15T07:25:58;99172.94;;;-3.12;100.00
12203;BME280;6164;42.178;24.622;2024-01-15T07:28:25;99155.03;;;-3.01;100.00
12203;BME280;6164;42.178;24.622;2024-01-15T07:30:51;99154.47;;;-2.92;100.00
12203;BME280;6164;42.178;24.622;2024-01-15T07:33:19;99165.41;;;-2.75;100.00
12203;BME280;6164;42.178;24.622;2024-01-15T07:35:46;99170.34;;;-2.57;100.00
12203;BME280;6164;42.178;24.622;2024-01-15T07:38:12;99164.31;;;-2.44;100.00
12203;BME280;6164;42.178;24.622;2024-01-15T07:40:39;99164.75;;;-2.37;100.00
12203;BME280;6164;42.178;24.622;2024-01-15T07:43:06;99164.94;;;-2.40;100.00
12203;BME280;6164;42.178;24.622;2024-01-15T07:45:32;99169.22;;;-2.27;100.00
12203;BME280;6164;42.178;24.622;2024-01-15T07:47:59;99167.50;;;-2.14;100.00
12203;BME280;6164;42.178;24.622;2024-01-15T07:50:27;99166.69;;;-2.14;100.00
12203;BME280;6164;42.178;24.622;2024-01-15T07:52:53;99179.84;;;-1.92;100.00
12203;BME280;6164;42.178;24.622;2024-01-15T07:55:20;99183.19;;;-1.78;100.00
12203;BME280;6164;42.178;24.622;2024-01-15T07:57:46;99188.19;;;-1.62;100.00
12203;BME280;6164;42.178;24.622;2024-01-15T08:00:13;99196.47;;;-1.57;100.00
12203;BME280;6164;42.178;24.622;2024-01-15T08:02:40;99209.53;;;-1.59;100.00
12203;BME280;6164;42.178;24.622;2024-01-15T08:05:06;99208.16;;;-1.64;100.00
12203;BME280;6164;42.178;24.622;2024-01-15T08:07:34;99203.94;;;-1.65;100.00
12203;BME280;6164;42.178;24.622;2024-01-15T08:10:01;99209.00;;;-1.51;100.00
12203;BME280;6164;42.178;24.622;2024-01-15T08:12:27;99210.78;;;-1.39;100.00
12203;BME280;6164;42.178;24.622;2024-01-15T08:14:54;99220.50;;;-1.30;100.00
12203;BME280;6164;42.178;24.622;2024-01-15T08:17:20;99214.91;;;-1.11;100.00
12203;BME280;6164;42.178;24.622;2024-01-15T08:19:47;99224.22;;;-0.96;100.00
12203;BME280;6164;42.178;24.622;2024-01-15T08:22:13;99218.44;;;-0.87;100.00
12203;BME280;6164;42.178;24.622;2024-01-15T08:24:41;99220.91;;;-0.86;100.00
12203;BME280;6164;42.178;24.622;2024-01-15T08:27:08;99220.31;;;-0.66;100.00
12203;BME280;6164;42.178;24.622;2024-01-15T08:29:34;99220.03;;;-0.61;100.00
12203;BME280;6164;42.178;24.622;2024-01-15T08:32:01;99208.38;;;-0.56;100.00
12203;BME280;6164;42.178;24.622;2024-01-15T08:34:27;99200.53;;;-0.31;100.00
12203;BME280;6164;42.178;24.622;2024-01-15T08:36:54;99189.53;;;-0.11;100.00
12203;BME280;6164;42.178;24.622;2024-01-15T08:39:20;99180.03;;;0.01;100.00
12203;BME280;6164;42.178;24.622;2024-01-15T08:41:48;99172.00;;;0.28;100.00
12203;BME280;6164;42.178;24.622;2024-01-15T08:44:15;99164.03;;;0.53;100.00
12203;BME280;6164;42.178;24.622;2024-01-15T08:46:41;99173.94;;;0.70;100.00
12203;BME280;6164;42.178;24.622;2024-01-15T08:49:08;99168.88;;;0.68;100.00
12203;BME280;6164;42.178;24.622;2024-01-15T08:51:35;99152.44;;;0.68;100.00
12203;BME280;6164;42.178;24.622;2024-01-15T08:54:03;99142.06;;;0.79;100.00
12203;BME280;6164;42.178;24.622;2024-01-15T08:56:29;99127.78;;;0.73;100.00
12203;BME280;6164;42.178;24.622;2024-01-15T08:58:57;99114.09;;;0.82;100.00
12203;BME280;6164;42.178;24.622;2024-01-15T09:01:24;99121.28;;;0.79;100.00
12203;BME280;6164;42.178;24.622;2024-01-15T09:03:51;99126.94;;;0.95;100.00
12203;BME280;6164;42.178;24.622;2024-01-15T09:06:17;99132.50;;;1.01;100.00
12203;BME280;6164;42.178;24.622;2024-01-15T09:08:44;99124.72;;;0.90;100.00
12203;BME280;6164;42.178;24.622;2024-01-15T09:11:10;99116.66;;;1.04;100.00
12203;BME280;6164;42.178;24.622;2024-01-15T09:13:37;99115.59;;;1.07;100.00
12203;BME280;6164;42.178;24.622;2024-01-15T09:16:05;99125.75;;;1.10;100.00
12203;BME280;6164;42.178;24.622;2024-01-15T09:18:32;99124.53;;;1.14;100.00
12203;BME280;6164;42.178;24.622;2024-01-15T09:20:58;99111.66;;;1.12;100.00
12203;BME280;6164;42.178;24.622;2024-01-15T09:23:25;99114.41;;;1.11;100.00
12203;BME280;6164;42.178;24.622;2024-01-15T09:25:52;99103.19;;;0.99;100.00
12203;BME280;6164;42.178;24.622;2024-01-15T09:28:18;99101.63;;;1.19;100.00
12203;BME280;6164;42.178;24.622;2024-01-15T09:30:45;99106.09;;;1.28;100.00
12203;BME280;6164;42.178;24.622;2024-01-15T09:33:13;99100.59;;;1.42;100.00
12203;BME280;6164;42.178;24.622;2024-01-15T09:35:40;99104.25;;;1.51;100.00
12203;BME280;6164;42.178;24.622;2024-01-15T09:38:07;99103.59;;;1.69;100.00
12203;BME280;6164;42.178;24.622;2024-01-15T09:40:33;99089.69;;;1.80;100.00
12203;BME280;6164;42.178;24.622;2024-01-15T09:43:00;99096.38;;;1.73;100.00
12203;BME280;6164;42.178;24.622;2024-01-15T09:45:27;99105.88;;;1.52;100.00
12203;BME280;6164;42.178;24.622;2024-01-15T09:47:54;99089.06;;;1.35;100.00
12203;BME280;6164;42.178;24.622;2024-01-15T09:50:22;99071.88;;;1.44;100.00
12203;BME280;6164;42.178;24.622;2024-01-15T09:52:49;99069.28;;;1.44;100.00
12203;BME280;6164;42.178;24.622;2024-01-15T09:55:17;99066.19;;;1.50;100.00
12203;BME280;6164;42.178;24.622;2024-01-15T09:57:43;99061.31;;;1.56;100.00
12203;BME280;6164;42.178;24.622;2024-01-15T10:00:10;99054.44;;;1.66;100.00
12203;BME280;6164;42.178;24.622;2024-01-15T10:02:37;99039.94;;;1.94;100.00
12203;BME280;6164;42.178;24.622;2024-01-15T10:05:04;99038.09;;;2.05;100.00
12203;BME280;6164;42.178;24.622;2024-01-15T10:07:32;99043.78;;;2.20;100.00
12203;BME280;6164;42.178;24.622;2024-01-15T10:10:01;99034.28;;;2.09;100.00
12203;BME280;6164;42.178;24.622;2024-01-15T10:12:28;99031.81;;;2.08;100.00
12203;BME280;6164;42.178;24.622;2024-01-15T10:14:55;99017.66;;;2.31;100.00
12203;BME280;6164;42.178;24.622;2024-01-15T10:17:22;99008.16;;;2.50;100.00
12203;BME280;6164;42.178;24.622;2024-01-15T10:19:50;98985.72;;;2.68;100.00
12203;BME280;6164;42.178;24.622;2024-01-15T10:22:16;98982.03;;;2.81;100.00
12203;BME280;6164;42.178;24.622;2024-01-15T10:24:45;98975.75;;;3.02;100.00
12203;BME280;6164;42.178;24.622;2024-01-15T10:27:12;98963.41;;;3.23;100.00
12203;BME280;6164;42.178;24.622;2024-01-15T10:29:39;98956.81;;;3.38;100.00
12203;BME280;6164;42.178;24.622;2024-01-15T10:32:07;98946.91;;;3.61;100.00
12203;BME280;6164;42.178;24.622;2024-01-15T10:34:37;98923.13;;;3.73;100.00
12203;BME280;6164;42.178;24.622;2024-01-15T10:37:04;98921.72;;;3.79;100.00
12203;BME280;6164;42.178;24.622;2024-01-15T10:39:30;98928.56;;;3.89;100.00
12203;BME280;6164;42.178;24.622;2024-01-15T10:41:58;98927.31;;;3.93;100.00
12203;BME280;6164;42.178;24.622;2024-01-15T10:44:25;98927.19;;;3.95;100.00
12203;BME280;6164;42.178;24.622;2024-01-15T10:46:51;98928.38;;;4.10;100.00
12203;BME280;6164;42.178;24.622;2024-01-15T10:49:18;98919.06;;;4.25;100.00
12203;BME280;6164;42.178;24.622;2024-01-15T10:51:45;98925.06;;;4.35;100.00
12203;BME280;6164;42.178;24.622;2024-01-15T10:54:15;98928.53;;;4.53;100.00
12203;BME280;6164;42.178;24.622;2024-01-15T10:56:42;98922.91;;;4.58;100.00
12203;BME280;6164;42.178;24.622;2024-01-15T10:59:11;98916.28;;;4.81;100.00
12203;BME280;6164;42.178;24.622;2024-01-15T11:01:39;98909.13;;;5.00;100.00
12203;BME280;6164;42.178;24.622;2024-01-15T11:04:06;98907.47;;;5.17;100.00
12203;BME280;6164;42.178;24.622;2024-01-15T11:06:40;98890.38;;;5.30;100.00
12203;BME280;6164;42.178;24.622;2024-01-15T11:09:07;98878.53;;;5.44;100.00
12203;BME280;6164;42.178;24.622;2024-01-15T11:11:34;98881.41;;;5.59;100.00
12203;BME280;6164;42.178;24.622;2024-01-15T11:14:01;98887.53;;;5.67;100.00
12203;BME280;6164;42.178;24.622;2024-01-15T11:16:30;98874.19;;;5.78;100.00
12203;BME280;6164;42.178;24.622;2024-01-15T11:19:17;98866.75;;;5.91;100.00
12203;BME280;6164;42.178;24.622;2024-01-15T11:21:45;98865.84;;;6.08;99.62
12203;BME280;6164;42.178;24.622;2024-01-15T11:24:11;98877.38;;;6.23;93.89
12203;BME280;6164;42.178;24.622;2024-01-15T11:26:58;98889.06;;;6.37;90.19
12203;BME280;6164;42.178;24.622;2024-01-15T11:29:31;98893.50;;;6.44;85.40
12203;BME280;6164;42.178;24.622;2024-01-15T11:32:01;98896.63;;;6.56;84.32
12203;BME280;6164;42.178;24.622;2024-01-15T11:37:14;98908.47;;;6.68;82.11
12203;BME280;6164;42.178;24.622;2024-01-15T11:39:41;98914.56;;;6.77;81.30
12203;BME280;6164;42.178;24.622;2024-01-15T11:42:09;98921.81;;;6.91;81.27
12203;BME280;6164;42.178;24.622;2024-01-15T11:44:36;98920.84;;;7.00;79.15
12203;BME280;6164;42.178;24.622;2024-01-15T11:47:05;98923.47;;;7.00;78.03
12203;BME280;6164;42.178;24.622;2024-01-15T11:49:35;98898.03;;;7.00;78.92
12203;BME280;6164;42.178;24.622;2024-01-15T11:52:08;98893.94;;;7.06;78.84
12203;BME280;6164;42.178;24.622;2024-01-15T11:54:37;98895.56;;;6.99;79.18
12203;BME280;6164;42.178;24.622;2024-01-15T11:57:06;98896.41;;;6.99;78.36
12203;BME280;6164;42.178;24.622;2024-01-15T11:59:35;98894.28;;;6.95;77.45
12203;BME280;6164;42.178;24.622;2024-01-15T12:02:02;98893.28;;;6.96;78.15
12203;BME280;6164;42.178;24.622;2024-01-15T12:04:30;98874.41;;;7.00;78.75
12203;BME280;6164;42.178;24.622;2024-01-15T12:06:57;98875.41;;;7.07;77.17
12203;BME280;6164;42.178;24.622;2024-01-15T12:09:23;98928.06;;;7.06;73.94
12203;BME280;6164;42.178;24.622;2024-01-15T12:11:54;98937.72;;;7.05;73.37
12203;BME280;6164;42.178;24.622;2024-01-15T12:14:24;98933.13;;;6.99;73.30
12203;BME280;6164;42.178;24.622;2024-01-15T12:16:52;98920.50;;;6.87;73.23
12203;BME280;6164;42.178;24.622;2024-01-15T12:19:18;98904.09;;;6.85;74.26
12203;BME280;6164;42.178;24.622;2024-01-15T12:21:46;98895.22;;;6.78;73.00
12203;BME280;6164;42.178;24.622;2024-01-15T12:24:13;98867.34;;;6.68;75.76
12203;BME280;6164;42.178;24.622;2024-01-15T12:26:40;98847.00;;;6.62;77.22
12203;BME280;6164;42.178;24.622;2024-01-15T12:29:06;98832.06;;;6.55;79.30
12203;BME280;6164;42.178;24.622;2024-01-15T12:31:33;98825.00;;;6.39;80.03
12203;BME280;6164;42.178;24.622;2024-01-15T12:34:01;98816.78;;;6.26;80.87
12203;BME280;6164;42.178;24.622;2024-01-15T12:36:30;98818.44;;;6.27;82.47
12203;BME280;6164;42.178;24.622;2024-01-15T12:39:00;98820.38;;;6.25;82.13
12203;BME280;6164;42.178;24.622;2024-01-15T12:41:27;98812.50;;;6.17;81.65
12203;BME280;6164;42.178;24.622;2024-01-15T12:43:54;98817.56;;;6.19;81.87
12203;BME280;6164;42.178;24.622;2024-01-15T12:46:20;98807.25;;;6.17;82.04
12203;BME280;6164;42.178;24.622;2024-01-15T12:48:47;98807.69;;;6.05;81.21
12203;BME280;6164;42.178;24.622;2024-01-15T12:51:13;98795.22;;;5.99;81.98
12203;BME280;6164;42.178;24.622;2024-01-15T12:53:41;98792.78;;;5.97;82.93
12203;BME280;6164;42.178;24.622;2024-01-15T12:56:09;98793.25;;;5.93;83.50